Christian Sabionski

Accountable Manager AM

Head of Training HT

Kapitän ATPL (A)         

Fluglehrer FI (A) für PPL, CPL,

 IR, MCCI und FI

Prüfer CRE (A) SEP (Land) 

Werkstattmeister

 

 

 

 

 

 

 

 

Marc Kanitz

Marc Kanitz

Berufspilot CPL (A) / ATPL (A)

Fluglehrer FI (A) für PPL

CRI SEP & TMG,  Cessna SET,  ACRO

Fluglotse

 

 

 

 

 

Dr. Silke Sabionski

Silke

Compliance Monitoring +

Safety Manager

PPL (A)

Theorie Lehrerin

Ärztin

 

 

 

 

 

 

 

Dietrich Mohr                   

Beauftragter für Technik BfT

Fluglehrer PPL & SIM

Co Pilot CPL (A) / ATPL (A)

Ingenieur Luft & Raumfahrt

 

 

 

 

 

 

Dr. Winthir Brunnbauer

Fluglehrer FI IR

Language Examiner

Kapitän ATPL (A) 

Winni.png - 7.54 MB

                                               

Flugwetter Augsburg

[source: ADDS]
METAR
EDMA 222250Z AUTO 16005KT 9999 // FEW100/// OVC140/// 16/14 Q1010 =
TAF EDMA 221700Z 2218/2303 VRB03KT 9999 SCT040 PROB30 TEMPO 2223/2303 23015G25KT TSRA BKN035CB
TAF
TAF EDMA 221700Z 2218/2303 VRB03KT 9999 SCT040 PROB30 TEMPO 2223/2303 23015G25KT TSRA BKN035CB =
Cookies erleichtern die Bereitstellung unserer Dienste. Mit der Nutzung unserer Dienste erklären Sie sich damit einverstanden, dass wir Cookies verwenden.
Weitere Informationen Ok